sensor_id;sensor_type;location;lat;lon;timestamp;temperature;humidity
26304;DHT22;57113;48.680;8.890;2023-01-28T00:00:26;5.10;99.90
26304;DHT22;57113;48.680;8.890;2023-01-28T00:02:52;5.20;99.90
26304;DHT22;57113;48.680;8.890;2023-01-28T00:05:17;5.20;99.90
26304;DHT22;57113;48.680;8.890;2023-01-28T00:07:43;5.40;99.90
26304;DHT22;57113;48.680;8.890;2023-01-28T00:10:09;5.60;99.90
26304;DHT22;57113;48.680;8.890;2023-01-28T00:12:35;5.80;99.90
26304;DHT22;57113;48.680;8.890;2023-01-28T00:15:01;6.00;99.90
26304;DHT22;57113;48.680;8.890;2023-01-28T00:17:26;6.10;99.90
26304;DHT22;57113;48.680;8.890;2023-01-28T00:19:52;6.10;99.90
26304;DHT22;57113;48.680;8.890;2023-01-28T00:22:18;6.00;99.90
26304;DHT22;57113;48.680;8.890;2023-01-28T00:24:44;5.90;99.90
26304;DHT22;57113;48.680;8.890;2023-01-28T00:27:10;5.80;99.90
26304;DHT22;57113;48.680;8.890;2023-01-28T00:29:37;5.70;99.90
26304;DHT22;57113;48.680;8.890;2023-01-28T00:32:03;5.60;99.90
26304;DHT22;57113;48.680;8.890;2023-01-28T00:34:28;5.50;99.90
26304;DHT22;57113;48.680;8.890;2023-01-28T00:36:54;5.50;99.90
26304;DHT22;57113;48.680;8.890;2023-01-28T00:39:23;5.40;99.90
26304;DHT22;57113;48.680;8.890;2023-01-28T00:41:52;5.40;99.90
26304;DHT22;57113;48.680;8.890;2023-01-28T00:44:19;5.40;99.90
26304;DHT22;57113;48.680;8.890;2023-01-28T00:46:45;5.30;99.90
26304;DHT22;57113;48.680;8.890;2023-01-28T00:49:11;5.30;99.90
26304;DHT22;57113;48.680;8.890;2023-01-28T00:51:37;5.20;99.90
26304;DHT22;57113;48.680;8.890;2023-01-28T00:54:02;5.20;99.90
26304;DHT22;57113;48.680;8.890;2023-01-28T00:56:28;5.20;99.90
26304;DHT22;57113;48.680;8.890;2023-01-28T00:58:54;5.20;99.90
26304;DHT22;57113;48.680;8.890;2023-01-28T01:01:22;5.20;99.90
26304;DHT22;57113;48.680;8.890;2023-01-28T01:03:48;5.20;99.90
26304;DHT22;57113;48.680;8.890;2023-01-28T01:06:31;5.30;99.90
26304;DHT22;57113;48.680;8.890;2023-01-28T01:08:57;5.40;99.90
26304;DHT22;57113;48.680;8.890;2023-01-28T01:11:23;5.70;99.90
26304;DHT22;57113;48.680;8.890;2023-01-28T01:13:59;5.90;99.90
26304;DHT22;57113;48.680;8.890;2023-01-28T01:16:28;6.10;99.90
26304;DHT22;57113;48.680;8.890;2023-01-28T01:18:56;6.10;99.90
26304;DHT22;57113;48.680;8.890;2023-01-28T01:21:24;6.00;99.90
26304;DHT22;57113;48.680;8.890;2023-01-28T01:23:51;5.90;99.90
26304;DHT22;57113;48.680;8.890;2023-01-28T01:26:17;5.80;99.90
26304;DHT22;57113;48.680;8.890;2023-01-28T01:28:43;5.70;99.90
26304;DHT22;57113;48.680;8.890;2023-01-28T01:31:14;5.70;99.90
26304;DHT22;57113;48.680;8.890;2023-01-28T01:33:45;5.60;99.90
26304;DHT22;57113;48.680;8.890;2023-01-28T01:36:12;5.50;99.90
26304;DHT22;57113;48.680;8.890;2023-01-28T01:38:39;5.50;99.90
26304;DHT22;57113;48.680;8.890;2023-01-28T01:41:05;5.40;99.90
26304;DHT22;57113;48.680;8.890;2023-01-28T01:44:04;5.40;99.90
26304;DHT22;57113;48.680;8.890;2023-01-28T01:49:19;5.30;99.90
26304;DHT22;57113;48.680;8.890;2023-01-28T01:51:47;5.20;99.90
26304;DHT22;57113;48.680;8.890;2023-01-28T01:54:15;5.20;99.90
26304;DHT22;57113;48.680;8.890;2023-01-28T01:56:42;5.20;99.90
26304;DHT22;57113;48.680;8.890;2023-01-28T01:59:14;5.20;99.90
26304;DHT22;57113;48.680;8.890;2023-01-28T02:01:43;5.10;99.90
26304;DHT22;57113;48.680;8.890;2023-01-28T02:04:28;5.20;99.90
26304;DHT22;57113;48.680;8.890;2023-01-28T02:06:56;5.30;99.90
26304;DHT22;57113;48.680;8.890;2023-01-28T02:09:28;5.50;99.90
26304;DHT22;57113;48.680;8.890;2023-01-28T02:14:41;6.00;99.90
26304;DHT22;57113;48.680;8.890;2023-01-28T02:17:07;6.10;99.90
26304;DHT22;57113;48.680;8.890;2023-01-28T02:19:39;6.10;99.90
26304;DHT22;57113;48.680;8.890;2023-01-28T02:25:30;5.90;99.90
26304;DHT22;57113;48.680;8.890;2023-01-28T02:31:03;5.70;99.90
26304;DHT22;57113;48.680;8.890;2023-01-28T02:38:48;5.40;99.90
26304;DHT22;57113;48.680;8.890;2023-01-28T02:41:24;5.40;99.90
26304;DHT22;57113;48.680;8.890;2023-01-28T02:43:52;5.40;99.90
26304;DHT22;57113;48.680;8.890;2023-01-28T02:46:31;5.30;99.90
26304;DHT22;57113;48.680;8.890;2023-01-28T03:00:25;5.20;99.90
26304;DHT22;57113;48.680;8.890;2023-01-28T03:03:10;5.10;99.90
26304;DHT22;57113;48.680;8.890;2023-01-28T03:05:48;5.20;99.90
26304;DHT22;57113;48.680;8.890;2023-01-28T03:08:44;5.40;99.90
26304;DHT22;57113;48.680;8.890;2023-01-28T03:11:31;5.60;99.90
26304;DHT22;57113;48.680;8.890;2023-01-28T03:14:18;5.90;99.90
26304;DHT22;57113;48.680;8.890;2023-01-28T03:17:02;6.10;99.90
26304;DHT22;57113;48.680;8.890;2023-01-28T03:19:48;6.10;99.90
26304;DHT22;57113;48.680;8.890;2023-01-28T03:22:33;6.00;99.90
26304;DHT22;57113;48.680;8.890;2023-01-28T03:25:21;6.00;99.90
26304;DHT22;57113;48.680;8.890;2023-01-28T03:28:09;5.80;99.90
26304;DHT22;57113;48.680;8.890;2023-01-28T03:31:05;5.70;99.90
26304;DHT22;57113;48.680;8.890;2023-01-28T03:33:52;5.60;99.90
26304;DHT22;57113;48.680;8.890;2023-01-28T03:36:37;5.50;99.90
26304;DHT22;57113;48.680;8.890;2023-01-28T03:39:17;5.50;99.90
26304;DHT22;57113;48.680;8.890;2023-01-28T03:42:15;5.40;99.90
26304;DHT22;57113;48.680;8.890;2023-01-28T03:44:40;5.30;99.90
26304;DHT22;57113;48.680;8.890;2023-01-28T03:47:28;5.30;99.90
26304;DHT22;57113;48.680;8.890;2023-01-28T03:49:55;5.30;99.90
26304;DHT22;57113;48.680;8.890;2023-01-28T03:52:29;5.20;99.90
26304;DHT22;57113;48.680;8.890;2023-01-28T03:54:55;5.20;99.90
26304;DHT22;57113;48.680;8.890;2023-01-28T03:57:24;5.20;99.90
26304;DHT22;57113;48.680;8.890;2023-01-28T03:59:50;5.10;99.90
26304;DHT22;57113;48.680;8.890;2023-01-28T04:02:20;5.10;99.90
26304;DHT22;57113;48.680;8.890;2023-01-28T04:04:46;5.20;99.90
26304;DHT22;57113;48.680;8.890;2023-01-28T04:07:13;5.30;99.90
26304;DHT22;57113;48.680;8.890;2023-01-28T04:09:40;5.50;99.90
26304;DHT22;57113;48.680;8.890;2023-01-28T04:12:06;5.70;99.90
26304;DHT22;57113;48.680;8.890;2023-01-28T04:14:32;6.00;99.90
26304;DHT22;57113;48.680;8.890;2023-01-28T04:16:58;6.10;99.90
26304;DHT22;57113;48.680;8.890;2023-01-28T04:19:24;6.10;99.90
26304;DHT22;57113;48.680;8.890;2023-01-28T04:21:50;6.00;99.90
26304;DHT22;57113;48.680;8.890;2023-01-28T04:24:18;5.90;99.90
26304;DHT22;57113;48.680;8.890;2023-01-28T04:26:44;5.90;99.90
26304;DHT22;57113;48.680;8.890;2023-01-28T04:29:10;5.80;99.90
26304;DHT22;57113;48.680;8.890;2023-01-28T04:31:35;5.60;99.90
26304;DHT22;57113;48.680;8.890;2023-01-28T04:34:01;5.60;99.90
26304;DHT22;57113;48.680;8.890;2023-01-28T04:36:26;5.50;99.90
26304;DHT22;57113;48.680;8.890;2023-01-28T04:38:52;5.40;99.90
26304;DHT22;57113;48.680;8.890;2023-01-28T04:41:18;5.40;99.90
26304;DHT22;57113;48.680;8.890;2023-01-28T04:43:44;5.40;99.90
26304;DHT22;57113;48.680;8.890;2023-01-28T04:46:09;5.30;99.90
26304;DHT22;57113;48.680;8.890;2023-01-28T04:48:35;5.30;99.90
26304;DHT22;57113;48.680;8.890;2023-01-28T04:51:02;5.20;99.90
26304;DHT22;57113;48.680;8.890;2023-01-28T04:53:28;5.20;99.90
26304;DHT22;57113;48.680;8.890;2023-01-28T04:55:53;5.20;99.90
26304;DHT22;57113;48.680;8.890;2023-01-28T04:58:19;5.20;99.90
26304;DHT22;57113;48.680;8.890;2023-01-28T05:00:44;5.10;99.90
26304;DHT22;57113;48.680;8.890;2023-01-28T05:03:10;5.10;99.90
26304;DHT22;57113;48.680;8.890;2023-01-28T05:05:36;5.20;99.90
26304;DHT22;57113;48.680;8.890;2023-01-28T05:08:01;5.30;99.90
26304;DHT22;57113;48.680;8.890;2023-01-28T05:10:27;5.60;99.90
26304;DHT22;57113;48.680;8.890;2023-01-28T05:12:53;5.80;99.90
26304;DHT22;57113;48.680;8.890;2023-01-28T05:15:19;6.00;99.90
26304;DHT22;57113;48.680;8.890;2023-01-28T05:17:45;6.10;99.90
26304;DHT22;57113;48.680;8.890;2023-01-28T05:20:12;6.10;99.90
26304;DHT22;57113;48.680;8.890;2023-01-28T05:22:38;6.00;99.90
26304;DHT22;57113;48.680;8.890;2023-01-28T05:25:04;5.90;99.90
26304;DHT22;57113;48.680;8.890;2023-01-28T05:27:31;5.80;99.90
26304;DHT22;57113;48.680;8.890;2023-01-28T05:29:57;5.70;99.90
26304;DHT22;57113;48.680;8.890;2023-01-28T05:32:23;5.60;99.90
26304;DHT22;57113;48.680;8.890;2023-01-28T05:34:49;5.60;99.90
26304;DHT22;57113;48.680;8.890;2023-01-28T05:37:14;5.50;99.90
26304;DHT22;57113;48.680;8.890;2023-01-28T05:39:40;5.40;99.90
26304;DHT22;57113;48.680;8.890;2023-01-28T05:42:06;5.40;99.90
26304;DHT22;57113;48.680;8.890;2023-01-28T05:44:31;5.30;99.90
26304;DHT22;57113;48.680;8.890;2023-01-28T05:46:57;5.30;99.90
26304;DHT22;57113;48.680;8.890;2023-01-28T05:49:23;5.30;99.90
26304;DHT22;57113;48.680;8.890;2023-01-28T05:51:51;5.20;99.90
26304;DHT22;57113;48.680;8.890;2023-01-28T05:54:16;5.20;99.90
26304;DHT22;57113;48.680;8.890;2023-01-28T05:56:42;5.20;99.90
26304;DHT22;57113;48.680;8.890;2023-01-28T05:59:10;5.20;99.90
26304;DHT22;57113;48.680;8.890;2023-01-28T06:01:36;5.10;99.90
26304;DHT22;57113;48.680;8.890;2023-01-28T06:04:03;5.20;99.90
26304;DHT22;57113;48.680;8.890;2023-01-28T06:06:28;5.30;99.90
26304;DHT22;57113;48.680;8.890;2023-01-28T06:08:54;5.50;99.90
26304;DHT22;57113;48.680;8.890;2023-01-28T06:11:20;5.70;99.90
26304;DHT22;57113;48.680;8.890;2023-01-28T06:13:46;5.90;99.90
26304;DHT22;57113;48.680;8.890;2023-01-28T06:16:11;6.00;99.90
26304;DHT22;57113;48.680;8.890;2023-01-28T06:18:37;6.00;99.90
26304;DHT22;57113;48.680;8.890;2023-01-28T06:21:03;5.90;99.90
26304;DHT22;57113;48.680;8.890;2023-01-28T06:23:28;5.90;99.90
26304;DHT22;57113;48.680;8.890;2023-01-28T06:25:55;5.80;99.90
26304;DHT22;57113;48.680;8.890;2023-01-28T06:28:21;5.70;99.90
26304;DHT22;57113;48.680;8.890;2023-01-28T06:30:48;5.60;99.90
26304;DHT22;57113;48.680;8.890;2023-01-28T06:33:14;5.60;99.90
26304;DHT22;57113;48.680;8.890;2023-01-28T06:35:40;5.50;99.90
26304;DHT22;57113;48.680;8.890;2023-01-28T06:38:06;5.40;99.90
26304;DHT22;57113;48.680;8.890;2023-01-28T06:40:31;5.40;99.90
26304;DHT22;57113;48.680;8.890;2023-01-28T06:42:57;5.30;99.90
26304;DHT22;57113;48.680;8.890;2023-01-28T06:45:23;5.30;99.90
26304;DHT22;57113;48.680;8.890;2023-01-28T06:47:48;5.20;99.90
26304;DHT22;57113;48.680;8.890;2023-01-28T06:50:15;5.20;99.90
26304;DHT22;57113;48.680;8.890;2023-01-28T06:52:41;5.20;99.90
26304;DHT22;57113;48.680;8.890;2023-01-28T06:55:07;5.20;99.90
26304;DHT22;57113;48.680;8.890;2023-01-28T06:57:33;5.10;99.90
26304;DHT22;57113;48.680;8.890;2023-01-28T06:59:58;5.20;99.90
26304;DHT22;57113;48.680;8.890;2023-01-28T07:02:24;5.10;99.90
26304;DHT22;57113;48.680;8.890;2023-01-28T07:04:50;5.20;99.90
26304;DHT22;57113;48.680;8.890;2023-01-28T07:07:16;5.30;99.90
26304;DHT22;57113;48.680;8.890;2023-01-28T07:09:41;5.50;99.90
26304;DHT22;57113;48.680;8.890;2023-01-28T07:12:07;5.80;99.90
26304;DHT22;57113;48.680;8.890;2023-01-28T07:14:32;5.90;99.90
26304;DHT22;57113;48.680;8.890;2023-01-28T07:16:58;6.00;99.90
26304;DHT22;57113;48.680;8.890;2023-01-28T07:19:24;6.00;99.90
26304;DHT22;57113;48.680;8.890;2023-01-28T07:21:49;6.00;99.90
26304;DHT22;57113;48.680;8.890;2023-01-28T07:24:15;5.80;99.90
26304;DHT22;57113;48.680;8.890;2023-01-28T07:26:41;5.70;99.90
26304;DHT22;57113;48.680;8.890;2023-01-28T07:29:07;5.60;99.90
26304;DHT22;57113;48.680;8.890;2023-01-28T07:31:33;5.60;99.90
26304;DHT22;57113;48.680;8.890;2023-01-28T07:33:58;5.50;99.90
26304;DHT22;57113;48.680;8.890;2023-01-28T07:36:24;5.50;99.90
26304;DHT22;57113;48.680;8.890;2023-01-28T07:38:50;5.40;99.90
26304;DHT22;57113;48.680;8.890;2023-01-28T07:41:15;5.30;99.90
26304;DHT22;57113;48.680;8.890;2023-01-28T07:43:41;5.30;99.90
26304;DHT22;57113;48.680;8.890;2023-01-28T07:46:06;5.30;99.90
26304;DHT22;57113;48.680;8.890;2023-01-28T07:48:32;5.20;99.90
26304;DHT22;57113;48.680;8.890;2023-01-28T07:50:58;5.20;99.90
26304;DHT22;57113;48.680;8.890;2023-01-28T07:53:24;5.20;99.90
26304;DHT22;57113;48.680;8.890;2023-01-28T07:55:50;5.10;99.90
26304;DHT22;57113;48.680;8.890;2023-01-28T07:58:16;5.10;99.90
26304;DHT22;57113;48.680;8.890;2023-01-28T08:00:41;5.30;99.90
26304;DHT22;57113;48.680;8.890;2023-01-28T08:03:12;5.50;99.90
26304;DHT22;57113;48.680;8.890;2023-01-28T08:05:45;5.60;99.90
26304;DHT22;57113;48.680;8.890;2023-01-28T08:08:12;5.70;99.90
26304;DHT22;57113;48.680;8.890;2023-01-28T08:10:38;5.70;99.90
26304;DHT22;57113;48.680;8.890;2023-01-28T08:13:04;5.70;99.90
26304;DHT22;57113;48.680;8.890;2023-01-28T08:15:31;5.60;99.90
26304;DHT22;57113;48.680;8.890;2023-01-28T08:17:57;5.50;99.90
26304;DHT22;57113;48.680;8.890;2023-01-28T08:20:25;5.50;99.90
26304;DHT22;57113;48.680;8.890;2023-01-28T08:22:51;5.40;99.90
26304;DHT22;57113;48.680;8.890;2023-01-28T08:25:16;5.40;99.90
26304;DHT22;57113;48.680;8.890;2023-01-28T08:27:42;5.40;99.90
26304;DHT22;57113;48.680;8.890;2023-01-28T08:30:08;5.40;99.90
26304;DHT22;57113;48.680;8.890;2023-01-28T08:32:34;5.50;99.90
26304;DHT22;57113;48.680;8.890;2023-01-28T08:35:00;5.60;99.90
26304;DHT22;57113;48.680;8.890;2023-01-28T08:37:26;5.60;99.90
26304;DHT22;57113;48.680;8.890;2023-01-28T08:39:51;5.60;99.90
26304;DHT22;57113;48.680;8.890;2023-01-28T08:42:17;5.60;99.90
26304;DHT22;57113;48.680;8.890;2023-01-28T08:44:42;5.50;99.90
26304;DHT22;57113;48.680;8.890;2023-01-28T08:47:08;5.50;99.90
26304;DHT22;57113;48.680;8.890;2023-01-28T08:49:34;5.40;99.90
26304;DHT22;57113;48.680;8.890;2023-01-28T08:51:59;5.40;99.90
26304;DHT22;57113;48.680;8.890;2023-01-28T08:54:25;5.30;99.90
26304;DHT22;57113;48.680;8.890;2023-01-28T08:56:50;5.40;99.90
26304;DHT22;57113;48.680;8.890;2023-01-28T08:59:16;5.50;99.90
26304;DHT22;57113;48.680;8.890;2023-01-28T09:01:42;5.60;99.90
26304;DHT22;57113;48.680;8.890;2023-01-28T09:04:08;5.60;99.90
26304;DHT22;57113;48.680;8.890;2023-01-28T09:06:33;5.60;99.90
26304;DHT22;57113;48.680;8.890;2023-01-28T09:08:59;5.60;99.90
26304;DHT22;57113;48.680;8.890;2023-01-28T09:11:26;5.60;99.90
26304;DHT22;57113;48.680;8.890;2023-01-28T09:13:52;5.50;99.90
26304;DHT22;57113;48.680;8.890;2023-01-28T09:16:17;5.20;99.90
26304;DHT22;57113;48.680;8.890;2023-01-28T09:18:43;5.10;99.90
26304;DHT22;57113;48.680;8.890;2023-01-28T09:21:09;5.00;99.90
26304;DHT22;57113;48.680;8.890;2023-01-28T09:23:35;5.10;99.90
26304;DHT22;57113;48.680;8.890;2023-01-28T09:26:02;5.30;99.90
26304;DHT22;57113;48.680;8.890;2023-01-28T09:28:28;5.40;99.90
26304;DHT22;57113;48.680;8.890;2023-01-28T09:31:03;5.30;99.90
26304;DHT22;57113;48.680;8.890;2023-01-28T09:33:29;5.40;99.90
26304;DHT22;57113;48.680;8.890;2023-01-28T09:35:55;5.40;99.90
26304;DHT22;57113;48.680;8.890;2023-01-28T09:38:23;5.40;99.90
26304;DHT22;57113;48.680;8.890;2023-01-28T09:40:49;5.30;99.90
26304;DHT22;57113;48.680;8.890;2023-01-28T09:43:40;5.30;99.90
26304;DHT22;57113;48.680;8.890;2023-01-28T09:46:12;5.30;99.90
26304;DHT22;57113;48.680;8.890;2023-01-28T09:48:47;5.30;99.90
26304;DHT22;57113;48.680;8.890;2023-01-28T09:51:42;5.30;99.90
26304;DHT22;57113;48.680;8.890;2023-01-28T09:54:48;5.50;99.90
26304;DHT22;57113;48.680;8.890;2023-01-28T09:57:35;5.50;99.90
26304;DHT22;57113;48.680;8.890;2023-01-28T10:00:01;5.50;99.90
26304;DHT22;57113;48.680;8.890;2023-01-28T10:12:58;5.40;99.90
26304;DHT22;57113;48.680;8.890;2023-01-28T10:18:10;5.50;99.90
26304;DHT22;57113;48.680;8.890;2023-01-28T10:20:51;5.60;99.90
26304;DHT22;57113;48.680;8.890;2023-01-28T10:23:43;5.60;99.90
26304;DHT22;57113;48.680;8.890;2023-01-28T10:26:24;5.60;99.90
26304;DHT22;57113;48.680;8.890;2023-01-28T10:28:56;5.50;99.90
26304;DHT22;57113;48.680;8.890;2023-01-28T10:31:26;5.50;99.90
26304;DHT22;57113;48.680;8.890;2023-01-28T10:33:54;5.50;99.90
26304;DHT22;57113;48.680;8.890;2023-01-28T10:36:20;5.50;99.90
26304;DHT22;57113;48.680;8.890;2023-01-28T10:38:46;5.40;99.90
26304;DHT22;57113;48.680;8.890;2023-01-28T10:41:18;5.40;99.90
26304;DHT22;57113;48.680;8.890;2023-01-28T10:43:46;5.50;99.90
26304;DHT22;57113;48.680;8.890;2023-01-28T10:46:20;5.60;99.90
26304;DHT22;57113;48.680;8.890;2023-01-28T10:48:47;5.70;99.90
26304;DHT22;57113;48.680;8.890;2023-01-28T10:51:28;5.70;99.90
26304;DHT22;57113;48.680;8.890;2023-01-28T10:53:54;5.60;99.90
26304;DHT22;57113;48.680;8.890;2023-01-28T10:56:31;5.60;99.90
26304;DHT22;57113;48.680;8.890;2023-01-28T10:59:17;5.50;99.90
26304;DHT22;57113;48.680;8.890;2023-01-28T11:01:49;5.50;99.90
26304;DHT22;57113;48.680;8.890;2023-01-28T11:04:20;5.50;99.90
26304;DHT22;57113;48.680;8.890;2023-01-28T11:07:03;5.40;99.90
26304;DHT22;57113;48.680;8.890;2023-01-28T11:09:31;5.40;99.90
26304;DHT22;57113;48.680;8.890;2023-01-28T11:11:58;5.60;99.90
26304;DHT22;57113;48.680;8.890;2023-01-28T11:14:26;5.70;99.90
26304;DHT22;57113;48.680;8.890;2023-01-28T11:16:53;5.70;99.90
26304;DHT22;57113;48.680;8.890;2023-01-28T11:19:23;5.70;99.90
26304;DHT22;57113;48.680;8.890;2023-01-28T11:21:54;5.60;99.90
26304;DHT22;57113;48.680;8.890;2023-01-28T11:24:24;5.60;99.90
26304;DHT22;57113;48.680;8.890;2023-01-28T11:26:55;5.50;99.90
26304;DHT22;57113;48.680;8.890;2023-01-28T11:29:31;5.50;99.90
26304;DHT22;57113;48.680;8.890;2023-01-28T11:31:58;5.50;99.90
26304;DHT22;57113;48.680;8.890;2023-01-28T11:34:28;5.40;99.90
26304;DHT22;57113;48.680;8.890;2023-01-28T11:37:09;5.50;99.90
26304;DHT22;57113;48.680;8.890;2023-01-28T11:39:35;5.60;99.90
26304;DHT22;57113;48.680;8.890;2023-01-28T11:44:37;5.70;99.90
26304;DHT22;57113;48.680;8.890;2023-01-28T11:47:10;5.70;99.90
26304;DHT22;57113;48.680;8.890;2023-01-28T11:52:46;5.30;99.90
26304;DHT22;57113;48.680;8.890;2023-01-28T12:07:36;5.40;99.90
26304;DHT22;57113;48.680;8.890;2023-01-28T12:12:53;5.50;99.90
26304;DHT22;57113;48.680;8.890;2023-01-28T12:20:49;5.50;99.90
26304;DHT22;57113;48.680;8.890;2023-01-28T12:31:41;5.60;99.90
26304;DHT22;57113;48.680;8.890;2023-01-28T12:43:18;5.70;99.90
26304;DHT22;57113;48.680;8.890;2023-01-28T12:45:57;5.70;99.90
26304;DHT22;57113;48.680;8.890;2023-01-28T12:48:29;5.60;99.90
26304;DHT22;57113;48.680;8.890;2023-01-28T12:51:10;5.60;99.90
26304;DHT22;57113;48.680;8.890;2023-01-28T12:53:51;5.50;99.90
26304;DHT22;57113;48.680;8.890;2023-01-28T12:56:26;5.60;99.90
26304;DHT22;57113;48.680;8.890;2023-01-28T12:59:04;5.80;99.90
26304;DHT22;57113;48.680;8.890;2023-01-28T13:04:28;5.80;99.90
26304;DHT22;57113;48.680;8.890;2023-01-28T13:07:04;5.80;99.90
26304;DHT22;57113;48.680;8.890;2023-01-28T13:09:33;5.80;99.90
26304;DHT22;57113;48.680;8.890;2023-01-28T13:12:01;5.70;99.90
26304;DHT22;57113;48.680;8.890;2023-01-28T13:14:30;5.70;99.90
26304;DHT22;57113;48.680;8.890;2023-01-28T13:17:11;5.60;99.90
26304;DHT22;57113;48.680;8.890;2023-01-28T13:19:39;5.60;99.90
26304;DHT22;57113;48.680;8.890;2023-01-28T13:22:26;5.60;99.90
26304;DHT22;57113;48.680;8.890;2023-01-28T13:24:52;5.70;99.90
26304;DHT22;57113;48.680;8.890;2023-01-28T13:27:26;5.80;99.90
26304;DHT22;57113;48.680;8.890;2023-01-28T13:29:59;5.80;99.90
26304;DHT22;57113;48.680;8.890;2023-01-28T13:32:58;5.90;99.90
26304;DHT22;57113;48.680;8.890;2023-01-28T13:35:36;5.80;99.90
26304;DHT22;57113;48.680;8.890;2023-01-28T13:38:18;5.70;99.90
26304;DHT22;57113;48.680;8.890;2023-01-28T13:40:59;5.70;99.90
26304;DHT22;57113;48.680;8.890;2023-01-28T13:46:04;5.60;99.90
26304;DHT22;57113;48.680;8.890;2023-01-28T13:48:48;5.60;99.90
26304;DHT22;57113;48.680;8.890;2023-01-28T13:51:24;5.50;99.90
26304;DHT22;57113;48.680;8.890;2023-01-28T13:54:06;5.50;99.90
26304;DHT22;57113;48.680;8.890;2023-01-28T14:15:57;5.60;99.90
26304;DHT22;57113;48.680;8.890;2023-01-28T14:18:38;5.60;99.90
26304;DHT22;57113;48.680;8.890;2023-01-28T14:21:16;5.50;99.90
26304;DHT22;57113;48.680;8.890;2023-01-28T14:23:48;5.50;99.90
26304;DHT22;57113;48.680;8.890;2023-01-28T14:31:56;5.80;99.90
26304;DHT22;57113;48.680;8.890;2023-01-28T14:34:33;5.80;99.90
26304;DHT22;57113;48.680;8.890;2023-01-28T14:37:32;5.80;99.90
26304;DHT22;57113;48.680;8.890;2023-01-28T14:40:11;5.70;99.90
26304;DHT22;57113;48.680;8.890;2023-01-28T14:42:43;5.70;99.90
26304;DHT22;57113;48.680;8.890;2023-01-28T14:46:33;5.70;99.90
26304;DHT22;57113;48.680;8.890;2023-01-28T14:48:46;5.60;99.90
26304;DHT22;57113;48.680;8.890;2023-01-28T14:59:55;5.70;99.90
26304;DHT22;57113;48.680;8.890;2023-01-28T15:02:28;5.80;99.90
26304;DHT22;57113;48.680;8.890;2023-01-28T15:04:54;5.80;99.90
26304;DHT22;57113;48.680;8.890;2023-01-28T15:07:30;5.80;99.90
26304;DHT22;57113;48.680;8.890;2023-01-28T15:10:05;5.70;99.90
26304;DHT22;57113;48.680;8.890;2023-01-28T15:12:38;5.70;99.90
26304;DHT22;57113;48.680;8.890;2023-01-28T15:15:32;5.70;99.90
26304;DHT22;57113;48.680;8.890;2023-01-28T15:18:04;5.60;99.90
26304;DHT22;57113;48.680;8.890;2023-01-28T15:20:30;5.60;99.90
26304;DHT22;57113;48.680;8.890;2023-01-28T15:22:56;5.50;99.90
26304;DHT22;57113;48.680;8.890;2023-01-28T15:25:26;5.60;99.90
26304;DHT22;57113;48.680;8.890;2023-01-28T15:27:55;5.60;99.90
26304;DHT22;57113;48.680;8.890;2023-01-28T15:30:32;5.80;99.90
26304;DHT22;57113;48.680;8.890;2023-01-28T15:33:10;5.80;99.90
26304;DHT22;57113;48.680;8.890;2023-01-28T15:35:37;5.80;99.90
26304;DHT22;57113;48.680;8.890;2023-01-28T15:38:02;5.80;99.90
26304;DHT22;57113;48.680;8.890;2023-01-28T15:40:29;5.70;99.90
26304;DHT22;57113;48.680;8.890;2023-01-28T15:42:55;5.70;99.90
26304;DHT22;57113;48.680;8.890;2023-01-28T15:45:24;5.70;99.90
26304;DHT22;57113;48.680;8.890;2023-01-28T15:47:52;5.60;99.90
26304;DHT22;57113;48.680;8.890;2023-01-28T15:50:26;5.60;99.90
26304;DHT22;57113;48.680;8.890;2023-01-28T15:52:52;5.60;99.90
26304;DHT22;57113;48.680;8.890;2023-01-28T15:57:51;5.60;99.90
26304;DHT22;57113;48.680;8.890;2023-01-28T16:00:20;5.80;99.90
26304;DHT22;57113;48.680;8.890;2023-01-28T16:02:51;5.80;99.90
26304;DHT22;57113;48.680;8.890;2023-01-28T16:05:33;5.80;99.90
26304;DHT22;57113;48.680;8.890;2023-01-28T16:08:08;5.80;99.90
26304;DHT22;57113;48.680;8.890;2023-01-28T16:10:35;5.80;99.90
26304;DHT22;57113;48.680;8.890;2023-01-28T16:13:11;5.70;99.90
26304;DHT22;57113;48.680;8.890;2023-01-28T16:15:44;5.60;99.90
26304;DHT22;57113;48.680;8.890;2023-01-28T16:20:53;5.60;99.90
26304;DHT22;57113;48.680;8.890;2023-01-28T16:23:22;5.50;99.90
26304;DHT22;57113;48.680;8.890;2023-01-28T16:26:01;5.50;99.90
26304;DHT22;57113;48.680;8.890;2023-01-28T16:28:28;5.40;99.90
26304;DHT22;57113;48.680;8.890;2023-01-28T16:30:55;5.40;99.90
26304;DHT22;57113;48.680;8.890;2023-01-28T16:33:21;5.40;99.90
26304;DHT22;57113;48.680;8.890;2023-01-28T16:35:47;5.40;99.90
26304;DHT22;57113;48.680;8.890;2023-01-28T16:38:13;5.40;99.90
26304;DHT22;57113;48.680;8.890;2023-01-28T16:40:42;5.40;99.90
26304;DHT22;57113;48.680;8.890;2023-01-28T16:43:12;5.30;99.90
26304;DHT22;57113;48.680;8.890;2023-01-28T16:45:38;5.30;99.90
26304;DHT22;57113;48.680;8.890;2023-01-28T16:48:05;5.30;99.90
26304;DHT22;57113;48.680;8.890;2023-01-28T16:50:32;5.30;99.90
26304;DHT22;57113;48.680;8.890;2023-01-28T16:52:59;5.30;99.90
26304;DHT22;57113;48.680;8.890;2023-01-28T16:55:25;5.30;99.90
26304;DHT22;57113;48.680;8.890;2023-01-28T16:57:54;5.30;99.90
26304;DHT22;57113;48.680;8.890;2023-01-28T17:00:25;5.20;99.90
26304;DHT22;57113;48.680;8.890;2023-01-28T17:02:52;5.20;99.90
26304;DHT22;57113;48.680;8.890;2023-01-28T17:05:19;5.30;99.90
26304;DHT22;57113;48.680;8.890;2023-01-28T17:07:46;5.50;99.90
26304;DHT22;57113;48.680;8.890;2023-01-28T17:10:16;5.70;99.90
26304;DHT22;57113;48.680;8.890;2023-01-28T17:12:43;6.00;99.90
26304;DHT22;57113;48.680;8.890;2023-01-28T17:15:09;6.20;99.90
26304;DHT22;57113;48.680;8.890;2023-01-28T17:17:35;6.30;99.90
26304;DHT22;57113;48.680;8.890;2023-01-28T17:20:00;6.30;99.90
26304;DHT22;57113;48.680;8.890;2023-01-28T17:22:26;6.20;99.90
26304;DHT22;57113;48.680;8.890;2023-01-28T17:24:51;6.10;99.90
26304;DHT22;57113;48.680;8.890;2023-01-28T17:27:17;6.00;99.90
26304;DHT22;57113;48.680;8.890;2023-01-28T17:29:43;6.00;99.90
26304;DHT22;57113;48.680;8.890;2023-01-28T17:32:08;5.80;99.90
26304;DHT22;57113;48.680;8.890;2023-01-28T17:34:34;5.80;99.90
26304;DHT22;57113;48.680;8.890;2023-01-28T17:37:00;5.70;99.90
26304;DHT22;57113;48.680;8.890;2023-01-28T17:39:25;5.70;99.90
26304;DHT22;57113;48.680;8.890;2023-01-28T17:41:51;5.60;99.90
26304;DHT22;57113;48.680;8.890;2023-01-28T17:44:17;5.60;99.90
26304;DHT22;57113;48.680;8.890;2023-01-28T17:46:43;5.50;99.90
26304;DHT22;57113;48.680;8.890;2023-01-28T17:49:09;5.50;99.90
26304;DHT22;57113;48.680;8.890;2023-01-28T17:51:35;5.40;99.90
26304;DHT22;57113;48.680;8.890;2023-01-28T17:54:01;5.40;99.90
26304;DHT22;57113;48.680;8.890;2023-01-28T17:56:28;5.40;99.90
26304;DHT22;57113;48.680;8.890;2023-01-28T17:58:59;5.40;99.90
26304;DHT22;57113;48.680;8.890;2023-01-28T18:01:27;5.40;99.90
26304;DHT22;57113;48.680;8.890;2023-01-28T18:03:54;5.30;99.90
26304;DHT22;57113;48.680;8.890;2023-01-28T18:06:20;5.50;99.90
26304;DHT22;57113;48.680;8.890;2023-01-28T18:08:46;5.70;99.90
26304;DHT22;57113;48.680;8.890;2023-01-28T18:11:15;5.90;99.90